createdAt,value
2022-09-14T00:01:43.712Z,3.00
2022-09-14T00:04:14.604Z,1.90
2022-09-14T00:06:44.578Z,1.50
2022-09-14T00:09:16.918Z,2.30
2022-09-14T00:11:45.846Z,1.50
2022-09-14T00:14:17.647Z,2.90
2022-09-14T00:16:46.883Z,1.80
2022-09-14T00:19:20.637Z,2.70
2022-09-14T00:21:54.200Z,6.00
2022-09-14T00:24:26.888Z,3.00
2022-09-14T00:26:55.407Z,2.30
2022-09-14T00:29:26.506Z,3.90
2022-09-14T00:31:54.887Z,3.80
2022-09-14T00:34:23.675Z,2.10
2022-09-14T00:36:52.812Z,2.80
2022-09-14T00:39:23.861Z,2.00
2022-09-14T00:41:53.014Z,6.80
2022-09-14T00:44:59.786Z,3.80
2022-09-14T00:47:31.294Z,3.50
2022-09-14T00:50:02.498Z,3.90
2022-09-14T00:52:37.167Z,4.00
2022-09-14T00:55:10.021Z,2.90
2022-09-14T00:57:41.597Z,3.00
2022-09-14T01:00:16.079Z,3.20
2022-09-14T01:02:45.543Z,2.90
2022-09-14T01:05:14.827Z,4.80
2022-09-14T01:08:30.467Z,3.80
2022-09-14T01:11:11.642Z,4.30
2022-09-14T01:13:49.804Z,4.10
2022-09-14T01:18:55.424Z,4.90
2022-09-14T01:21:29.111Z,6.60
2022-09-14T01:24:06.268Z,7.00
2022-09-14T01:26:58.989Z,4.90
2022-09-14T01:29:33.646Z,5.00
2022-09-14T01:32:08.168Z,5.40
2022-09-14T01:34:41.062Z,4.40
2022-09-14T01:37:13.330Z,5.00
2022-09-14T01:39:53.008Z,4.20
2022-09-14T01:42:26.957Z,4.80
2022-09-14T01:45:01.012Z,5.70
2022-09-14T01:47:34.303Z,6.30
2022-09-14T01:50:08.189Z,5.60
2022-09-14T01:52:43.038Z,6.40
2022-09-14T01:55:16.600Z,4.40
2022-09-14T01:57:49.932Z,6.00
2022-09-14T02:00:20.840Z,8.50
2022-09-14T02:02:56.473Z,8.50
2022-09-14T02:05:32.350Z,9.60
2022-09-14T02:08:01.504Z,10.40
2022-09-14T02:10:30.224Z,13.30
2022-09-14T02:12:58.812Z,12.40
2022-09-14T02:15:27.562Z,14.70
2022-09-14T02:17:56.425Z,15.50
2022-09-14T02:20:30.411Z,15.50
2022-09-14T02:22:59.490Z,15.90
2022-09-14T02:25:28.252Z,16.00
2022-09-14T02:27:56.656Z,15.90
2022-09-14T02:30:25.385Z,16.30
2022-09-14T02:33:07.926Z,20.30
2022-09-14T02:35:42.193Z,19.10
2022-09-14T02:38:20.416Z,17.40
2022-09-14T02:40:56.755Z,22.90
2022-09-14T02:43:37.249Z,18.50
2022-09-14T02:46:14.370Z,22.00
2022-09-14T02:48:52.764Z,21.50
2022-09-14T02:51:30.540Z,24.00
2022-09-14T02:54:08.423Z,22.20
2022-09-14T02:56:37.556Z,25.00
2022-09-14T02:59:06.411Z,23.10
2022-09-14T03:01:35.261Z,28.30
2022-09-14T03:04:03.892Z,20.30
2022-09-14T03:06:32.482Z,24.90
2022-09-14T03:09:03.509Z,23.50
2022-09-14T03:11:32.090Z,22.80
2022-09-14T03:14:00.577Z,22.20
2022-09-14T03:16:29.200Z,20.30
2022-09-14T03:18:57.609Z,26.00
2022-09-14T03:21:26.112Z,21.00
2022-09-14T03:23:54.881Z,24.20
2022-09-14T03:26:25.742Z,25.30
2022-09-14T03:28:59.518Z,25.80
2022-09-14T03:31:28.077Z,21.70
2022-09-14T03:33:58.546Z,20.20
2022-09-14T03:36:28.485Z,23.90
2022-09-14T03:39:01.493Z,23.00
2022-09-14T03:41:30.324Z,25.40
2022-09-14T03:43:58.706Z,20.60
2022-09-14T03:46:28.215Z,22.60
2022-09-14T03:48:56.904Z,24.70
2022-09-14T03:51:25.500Z,21.80
2022-09-14T03:53:54.133Z,18.40
2022-09-14T03:56:23.580Z,21.40
2022-09-14T03:58:52.173Z,23.20
2022-09-14T04:01:22.029Z,20.50
2022-09-14T04:03:51.249Z,22.20
2022-09-14T04:06:20.375Z,20.50
2022-09-14T04:08:48.956Z,22.60
2022-09-14T04:11:22.179Z,23.50
2022-09-14T04:13:51.807Z,22.10
2022-09-14T04:16:23.247Z,21.50
2022-09-14T04:18:52.605Z,17.80
2022-09-14T04:21:23.071Z,19.00
2022-09-14T04:24:14.088Z,20.40
2022-09-14T04:26:44.697Z,20.50
2022-09-14T04:29:13.984Z,19.20
2022-09-14T04:31:42.517Z,20.00
2022-09-14T04:34:13.520Z,25.90
2022-09-14T04:36:42.437Z,20.70
2022-09-14T04:39:13.022Z,19.70
2022-09-14T04:41:41.714Z,22.60
2022-09-14T04:44:16.074Z,20.00
2022-09-14T04:46:46.939Z,20.40
2022-09-14T04:49:18.318Z,19.00
2022-09-14T04:51:50.125Z,23.10
2022-09-14T04:54:18.691Z,21.10
2022-09-14T04:56:47.573Z,17.30
2022-09-14T04:59:19.208Z,18.70
2022-09-14T05:01:48.686Z,20.70
2022-09-14T05:04:18.555Z,22.40
2022-09-14T05:06:46.905Z,23.00
2022-09-14T05:09:22.767Z,20.10
2022-09-14T05:11:52.374Z,17.80
2022-09-14T05:14:20.747Z,19.30
2022-09-14T05:16:49.282Z,20.60
2022-09-14T05:19:18.639Z,17.10
2022-09-14T05:21:47.560Z,19.70
2022-09-14T05:24:18.611Z,19.40
2022-09-14T05:26:56.048Z,20.70
2022-09-14T05:29:29.469Z,19.30
2022-09-14T05:32:01.061Z,17.90
2022-09-14T05:34:29.801Z,17.20
2022-09-14T05:36:58.215Z,20.60
2022-09-14T05:39:26.610Z,20.80
2022-09-14T05:41:55.600Z,20.80
2022-09-14T05:44:24.067Z,17.80
2022-09-14T05:46:52.646Z,18.60
2022-09-14T05:49:21.232Z,20.50
2022-09-14T05:51:49.585Z,20.70
2022-09-14T05:54:18.785Z,22.90
2022-09-14T05:56:47.774Z,28.40
2022-09-14T05:59:16.878Z,20.80
2022-09-14T06:01:45.297Z,24.30
2022-09-14T06:04:13.771Z,21.90
2022-09-14T06:06:49.324Z,28.20
2022-09-14T06:09:42.399Z,28.70
2022-09-14T06:12:10.767Z,25.10
2022-09-14T06:14:40.211Z,31.20
2022-09-14T06:17:08.500Z,29.10
2022-09-14T06:19:39.780Z,24.80
2022-09-14T06:22:08.370Z,27.00
2022-09-14T06:24:36.847Z,29.10
2022-09-14T06:27:08.876Z,28.10
2022-09-14T06:29:37.782Z,26.10
2022-09-14T06:32:06.779Z,27.10
2022-09-14T06:34:35.151Z,29.40
2022-09-14T06:37:03.492Z,29.40
2022-09-14T06:39:32.449Z,21.60
2022-09-14T06:42:00.741Z,25.60
2022-09-14T06:44:30.354Z,27.00
2022-09-14T06:46:59.287Z,24.30
2022-09-14T06:49:27.575Z,27.40
2022-09-14T06:51:56.975Z,23.90
2022-09-14T06:54:25.723Z,23.80
2022-09-14T06:56:54.171Z,25.40
2022-09-14T06:59:22.531Z,26.90
2022-09-14T07:01:50.916Z,25.10
2022-09-14T07:04:19.193Z,26.10
2022-09-14T07:06:49.650Z,22.80
2022-09-14T07:09:19.537Z,25.40
2022-09-14T07:11:48.613Z,23.10
2022-09-14T07:14:19.971Z,25.40
2022-09-14T07:16:48.546Z,20.10
2022-09-14T07:19:17.843Z,23.60
2022-09-14T07:21:47.867Z,20.90
2022-09-14T07:24:18.631Z,24.00
2022-09-14T07:26:47.303Z,24.10
2022-09-14T07:29:20.095Z,25.10
2022-09-14T07:31:50.533Z,22.40
2022-09-14T07:34:19.212Z,20.40
2022-09-14T07:36:47.551Z,24.00
2022-09-14T07:39:17.886Z,19.70
2022-09-14T07:41:46.586Z,20.80
2022-09-14T07:44:17.065Z,18.70
2022-09-14T07:46:47.036Z,18.90
2022-09-14T07:49:16.964Z,18.20
2022-09-14T07:51:45.833Z,18.60
2022-09-14T07:54:16.817Z,19.90
2022-09-14T07:56:45.993Z,19.90
2022-09-14T07:59:34.996Z,20.70
2022-09-14T08:02:08.614Z,18.40
2022-09-14T08:04:38.715Z,16.00
2022-09-14T08:07:07.948Z,16.20
2022-09-14T08:09:37.195Z,18.30
2022-09-14T08:12:05.933Z,18.60
2022-09-14T08:14:34.993Z,15.50
2022-09-14T08:17:03.294Z,17.60
2022-09-14T08:19:31.995Z,17.00
2022-09-14T08:22:00.194Z,17.70
2022-09-14T08:24:28.393Z,17.40
2022-09-14T08:26:57.331Z,17.00
2022-09-14T08:29:25.683Z,20.50
2022-09-14T08:31:54.014Z,15.10
2022-09-14T08:34:22.881Z,14.00
2022-09-14T08:36:51.176Z,13.50
2022-09-14T08:39:19.781Z,12.50
2022-09-14T08:41:53.242Z,13.10
2022-09-14T08:44:26.849Z,16.00
2022-09-14T08:47:00.631Z,13.10
2022-09-14T08:49:41.181Z,15.70
2022-09-14T08:52:20.973Z,10.80
2022-09-14T08:54:55.348Z,14.60
2022-09-14T08:57:31.331Z,10.70
2022-09-14T09:00:08.179Z,11.20
2022-09-14T09:03:00.718Z,13.40
2022-09-14T09:05:41.079Z,13.70
2022-09-14T09:08:25.313Z,10.50
2022-09-14T09:10:55.228Z,10.50
2022-09-14T09:13:29.281Z,9.90
2022-09-14T09:16:02.535Z,11.40
2022-09-14T09:18:39.854Z,9.00
2022-09-14T09:21:11.481Z,10.20
2022-09-14T09:23:41.097Z,7.80
2022-09-14T09:26:17.466Z,8.90
2022-09-14T09:28:48.868Z,8.90
2022-09-14T09:31:27.255Z,10.20
2022-09-14T09:34:28.263Z,9.40
2022-09-14T09:37:14.730Z,7.60
2022-09-14T09:39:44.636Z,8.40
2022-09-14T09:42:19.847Z,9.40
2022-09-14T09:45:01.832Z,6.60
2022-09-14T09:47:46.544Z,12.60
2022-09-14T09:50:21.414Z,9.70
2022-09-14T09:52:52.462Z,10.20
2022-09-14T09:55:24.525Z,8.20
2022-09-14T09:58:22.572Z,8.20
2022-09-14T10:01:20.663Z,7.00
2022-09-14T10:04:03.581Z,8.90
2022-09-14T10:06:44.404Z,7.80
2022-09-14T10:09:26.474Z,7.60
2022-09-14T10:12:15.967Z,6.20
2022-09-14T10:15:22.526Z,7.90
2022-09-14T10:18:19.889Z,6.90
2022-09-14T10:21:08.419Z,4.70
2022-09-14T10:23:40.153Z,7.50
2022-09-14T10:26:25.118Z,7.70
2022-09-14T10:28:53.687Z,7.70
2022-09-14T10:31:36.796Z,9.60
2022-09-14T10:34:25.741Z,4.70
2022-09-14T10:37:04.963Z,4.40
2022-09-14T10:39:53.495Z,9.00
2022-09-14T10:42:37.766Z,5.90
2022-09-14T10:45:34.874Z,6.20
2022-09-14T10:48:42.976Z,5.00
2022-09-14T10:51:41.978Z,3.40
2022-09-14T10:54:57.792Z,4.30
2022-09-14T10:57:48.247Z,7.00
2022-09-14T11:00:19.558Z,4.90
2022-09-14T11:03:28.805Z,3.90
2022-09-14T11:06:19.473Z,4.70
2022-09-14T11:08:59.554Z,6.80
2022-09-14T11:11:45.649Z,3.80
2022-09-14T11:14:34.728Z,6.30
2022-09-14T11:17:29.216Z,6.30
2022-09-14T11:20:06.184Z,4.90
2022-09-14T11:22:45.133Z,6.80
2022-09-14T11:25:42.999Z,7.60
2022-09-14T11:28:18.590Z,3.00
2022-09-14T11:30:52.165Z,4.50
2022-09-14T11:33:31.054Z,4.40
2022-09-14T11:36:09.501Z,2.80
2022-09-14T11:38:48.496Z,6.00
2022-09-14T11:41:26.943Z,3.40
2022-09-14T11:43:59.377Z,4.40
2022-09-14T11:46:35.073Z,2.30
2022-09-14T11:49:16.586Z,3.80
2022-09-14T11:51:52.373Z,3.50
2022-09-14T11:54:23.378Z,4.60
2022-09-14T11:56:55.462Z,4.00
2022-09-14T11:59:49.732Z,4.30
2022-09-14T12:02:59.883Z,3.70
2022-09-14T12:05:38.922Z,4.90
2022-09-14T12:08:41.925Z,3.80
2022-09-14T12:11:26.486Z,3.60
2022-09-14T12:14:29.189Z,4.70
2022-09-14T12:17:38.388Z,4.10
2022-09-14T12:20:36.305Z,3.60
2022-09-14T12:23:20.899Z,4.00
2022-09-14T12:26:25.036Z,3.40
2022-09-14T12:28:59.104Z,4.20
2022-09-14T12:32:00.551Z,3.60
2022-09-14T12:34:32.808Z,5.70
2022-09-14T12:37:30.071Z,4.10
2022-09-14T12:40:36.889Z,3.50
2022-09-14T12:43:49.715Z,3.90
2022-09-14T12:46:40.375Z,2.80
2022-09-14T12:49:30.314Z,3.60
2022-09-14T12:52:13.076Z,2.30
2022-09-14T12:55:02.625Z,3.30
2022-09-14T12:57:42.855Z,5.70
2022-09-14T13:00:15.222Z,2.40
2022-09-14T13:03:17.354Z,3.40
2022-09-14T13:08:20.982Z,3.50
2022-09-14T13:10:52.016Z,2.60
2022-09-14T13:13:33.238Z,2.50
2022-09-14T13:16:07.835Z,2.90
2022-09-14T13:18:37.918Z,5.00
2022-09-14T13:21:19.044Z,4.20
2022-09-14T13:23:48.020Z,4.10
2022-09-14T13:26:20.805Z,5.10
2022-09-14T13:28:53.998Z,2.90
2022-09-14T13:31:30.178Z,3.40
2022-09-14T13:34:04.877Z,5.80
2022-09-14T13:36:43.841Z,3.80
2022-09-14T13:39:25.845Z,3.00
2022-09-14T13:41:57.678Z,4.90
2022-09-14T13:44:33.119Z,3.90
2022-09-14T13:47:05.421Z,3.20
2022-09-14T13:49:35.746Z,3.50
2022-09-14T13:52:59.813Z,5.70
2022-09-14T13:55:26.861Z,6.00
2022-09-14T13:58:22.683Z,3.70
2022-09-14T14:01:11.907Z,4.00
2022-09-14T14:03:49.070Z,2.60
2022-09-14T14:06:24.913Z,3.70
2022-09-14T14:08:57.830Z,6.30
2022-09-14T14:11:33.712Z,6.70
2022-09-14T14:14:22.285Z,3.60
2022-09-14T14:17:30.427Z,6.80
2022-09-14T14:20:00.740Z,3.10
2022-09-14T14:22:33.489Z,3.10
2022-09-14T14:25:19.950Z,4.50
2022-09-14T14:27:48.997Z,4.80
2022-09-14T14:30:21.406Z,5.00
2022-09-14T14:32:51.791Z,4.60
2022-09-14T14:35:22.688Z,4.60
2022-09-14T14:37:51.520Z,5.70
2022-09-14T14:40:20.811Z,2.30
2022-09-14T14:42:50.384Z,5.00
2022-09-14T14:45:22.150Z,4.90
2022-09-14T14:47:55.105Z,4.50
2022-09-14T14:50:26.079Z,5.50
2022-09-14T14:52:54.968Z,5.60
2022-09-14T14:55:25.239Z,3.40
2022-09-14T14:57:53.769Z,4.50
2022-09-14T15:00:23.937Z,3.60
2022-09-14T15:02:55.131Z,3.40
2022-09-14T15:05:24.995Z,2.50
2022-09-14T15:07:54.590Z,5.50
2022-09-14T15:10:25.460Z,3.70
2022-09-14T15:12:54.292Z,4.90
2022-09-14T15:15:25.462Z,7.60
2022-09-14T15:17:54.364Z,3.90
2022-09-14T15:20:23.762Z,3.60
2022-09-14T15:22:52.587Z,4.50
2022-09-14T15:25:21.979Z,5.30
2022-09-14T15:27:53.400Z,2.80
2022-09-14T15:30:21.984Z,5.60
2022-09-14T15:32:50.674Z,3.30
2022-09-14T15:35:19.467Z,3.60
2022-09-14T15:37:48.459Z,2.80
2022-09-14T15:40:19.526Z,3.40
2022-09-14T15:42:48.570Z,5.20
2022-09-14T15:45:18.079Z,3.60
2022-09-14T15:47:46.749Z,4.00
2022-09-14T15:50:16.359Z,4.40
2022-09-14T15:52:45.431Z,2.50
2022-09-14T15:55:14.464Z,5.10
2022-09-14T15:57:45.831Z,4.10
2022-09-14T16:00:19.908Z,6.30
2022-09-14T16:02:50.898Z,3.40
2022-09-14T16:05:19.500Z,2.40
2022-09-14T16:07:49.122Z,3.70
2022-09-14T16:10:18.750Z,4.80
2022-09-14T16:12:47.251Z,3.00
2022-09-14T16:15:15.785Z,5.60
2022-09-14T16:17:48.911Z,4.10
2022-09-14T16:20:17.675Z,6.00
2022-09-14T16:22:47.510Z,3.60
2022-09-14T16:25:19.396Z,4.60
2022-09-14T16:27:58.685Z,4.70
2022-09-14T16:30:36.674Z,2.90
2022-09-14T16:33:05.239Z,4.10
2022-09-14T16:35:33.686Z,5.60
2022-09-14T16:38:03.346Z,7.20
2022-09-14T16:40:39.010Z,8.10
2022-09-14T16:43:11.047Z,11.90
2022-09-14T16:45:40.332Z,9.70
2022-09-14T16:48:09.215Z,12.80
2022-09-14T16:50:38.310Z,11.50
2022-09-14T16:53:07.370Z,10.60
2022-09-14T16:55:38.498Z,6.30
2022-09-14T16:58:07.005Z,6.40
2022-09-14T17:00:36.183Z,7.20
2022-09-14T17:03:05.359Z,5.10
2022-09-14T17:05:36.212Z,7.00
2022-09-14T17:08:06.093Z,5.10
2022-09-14T17:10:35.569Z,6.20
2022-09-14T17:13:04.564Z,10.00
2022-09-14T17:15:33.456Z,6.30
2022-09-14T17:18:02.175Z,3.70
2022-09-14T17:20:30.929Z,5.50
2022-09-14T17:22:59.483Z,10.50
2022-09-14T17:25:28.847Z,7.10
2022-09-14T17:27:57.464Z,5.70
2022-09-14T17:30:26.931Z,5.80
2022-09-14T17:32:55.643Z,5.20
2022-09-14T17:35:24.604Z,7.20
2022-09-14T17:37:53.372Z,4.60
2022-09-14T17:40:21.736Z,6.00
2022-09-14T17:42:50.379Z,8.50
2022-09-14T17:45:19.603Z,6.90
2022-09-14T17:47:48.071Z,5.60
2022-09-14T17:50:20.814Z,4.50
2022-09-14T17:52:49.273Z,8.40
2022-09-14T17:55:20.705Z,5.30
2022-09-14T17:57:49.946Z,4.30
2022-09-14T18:00:18.984Z,6.60
2022-09-14T18:02:51.466Z,9.50
2022-09-14T18:05:20.676Z,7.80
2022-09-14T18:07:50.818Z,5.70
2022-09-14T18:10:21.912Z,3.10
2022-09-14T18:12:58.321Z,3.40
2022-09-14T18:15:27.167Z,6.70
2022-09-14T18:17:55.636Z,4.10
2022-09-14T18:20:24.390Z,5.80
2022-09-14T18:22:54.811Z,7.00
2022-09-14T18:25:24.294Z,5.80
2022-09-14T18:27:55.678Z,7.70
2022-09-14T18:30:26.647Z,6.30
2022-09-14T18:32:55.658Z,6.10
2022-09-14T18:35:24.430Z,11.20
2022-09-14T18:37:52.810Z,6.80
2022-09-14T18:40:21.563Z,9.50
2022-09-14T18:42:52.980Z,5.20
2022-09-14T18:45:22.006Z,8.20
2022-09-14T18:47:50.530Z,4.80
2022-09-14T18:50:19.610Z,4.80
2022-09-14T18:52:48.392Z,5.80
2022-09-14T18:55:19.618Z,5.40
2022-09-14T18:57:52.282Z,10.30
2022-09-14T19:00:20.994Z,8.80
2022-09-14T19:02:53.320Z,11.00
2022-09-14T19:05:22.845Z,14.10
2022-09-14T19:07:51.350Z,40.70
2022-09-14T19:10:20.343Z,39.60
2022-09-14T19:12:49.144Z,38.10
2022-09-14T19:15:30.767Z,36.50
2022-09-14T19:18:09.379Z,22.40
2022-09-14T19:21:04.887Z,22.50
2022-09-14T19:23:28.542Z,25.40
2022-09-14T19:26:01.387Z,22.50
2022-09-14T19:28:30.177Z,25.70
2022-09-14T19:30:58.710Z,20.30
2022-09-14T19:33:27.256Z,18.80
2022-09-14T19:36:01.315Z,18.50
2022-09-14T19:38:30.116Z,18.00
2022-09-14T19:40:58.682Z,26.30
2022-09-14T19:43:29.088Z,22.10
2022-09-14T19:46:02.723Z,22.70
2022-09-14T19:48:31.115Z,18.50
2022-09-14T19:51:00.907Z,12.20
2022-09-14T19:53:30.707Z,15.90
2022-09-14T19:55:59.778Z,15.00
2022-09-14T19:58:29.386Z,13.30
2022-09-14T20:00:58.167Z,18.20
2022-09-14T20:03:26.585Z,16.70
2022-09-14T20:06:01.085Z,13.30
2022-09-14T20:08:30.319Z,11.80
2022-09-14T20:11:04.650Z,9.10
2022-09-14T20:13:36.262Z,11.60
2022-09-14T20:16:12.063Z,11.80
2022-09-14T20:18:41.266Z,15.60
2022-09-14T20:21:12.417Z,17.60
2022-09-14T20:23:58.009Z,16.90
2022-09-14T20:26:31.067Z,21.80
2022-09-14T20:29:00.671Z,16.90
2022-09-14T20:31:31.340Z,17.30
2022-09-14T20:34:01.381Z,16.90
2022-09-14T20:36:29.915Z,18.60
2022-09-14T20:38:59.467Z,17.90
2022-09-14T20:41:33.906Z,18.80
2022-09-14T20:44:03.853Z,17.10
2022-09-14T20:46:39.150Z,16.70
2022-09-14T20:49:10.860Z,13.30
2022-09-14T20:51:40.596Z,14.90
2022-09-14T20:54:12.529Z,18.30
2022-09-14T20:56:42.241Z,15.40
2022-09-14T20:59:15.595Z,16.10
2022-09-14T21:01:47.001Z,19.20
2022-09-14T21:04:20.287Z,11.40
2022-09-14T21:06:51.890Z,13.60
2022-09-14T21:09:23.559Z,9.60
2022-09-14T21:11:53.023Z,11.50
2022-09-14T21:14:22.265Z,13.40
2022-09-14T21:16:56.033Z,11.30
2022-09-14T21:19:28.231Z,11.10
2022-09-14T21:21:57.331Z,11.30
2022-09-14T21:24:26.571Z,10.10
2022-09-14T21:26:56.546Z,11.20
2022-09-14T21:29:25.186Z,10.20
2022-09-14T21:31:53.859Z,9.80
2022-09-14T21:34:22.656Z,12.30
2022-09-14T21:36:52.587Z,9.80
2022-09-14T21:39:24.435Z,9.80
2022-09-14T21:41:58.793Z,10.50
2022-09-14T21:44:30.065Z,13.30
2022-09-14T21:46:59.294Z,9.60
2022-09-14T21:49:27.851Z,9.30
2022-09-14T21:51:56.450Z,10.10
2022-09-14T21:54:25.025Z,7.30
2022-09-14T21:56:53.912Z,9.60
2022-09-14T21:59:23.294Z,9.70
2022-09-14T22:01:51.935Z,8.70
2022-09-14T22:04:22.958Z,10.10
2022-09-14T22:06:52.902Z,12.90
2022-09-14T22:09:23.268Z,8.00
2022-09-14T22:11:52.038Z,13.70
2022-09-14T22:14:22.874Z,10.60
2022-09-14T22:16:52.130Z,8.80
2022-09-14T22:19:23.833Z,8.40
2022-09-14T22:21:53.408Z,12.30
2022-09-14T22:24:24.114Z,11.00
2022-09-14T22:26:54.074Z,8.90
2022-09-14T22:29:23.114Z,9.50
2022-09-14T22:31:52.080Z,9.40
2022-09-14T22:34:20.973Z,6.70
2022-09-14T22:36:49.407Z,9.30
2022-09-14T22:39:20.756Z,6.20
2022-09-14T22:41:49.116Z,10.20
2022-09-14T22:44:18.175Z,13.10
2022-09-14T22:46:47.017Z,12.00
2022-09-14T22:49:15.951Z,7.70
2022-09-14T22:51:44.497Z,9.10
2022-09-14T22:54:13.098Z,8.10
2022-09-14T22:56:41.510Z,9.40
2022-09-14T22:59:10.809Z,8.60
2022-09-14T23:01:41.566Z,9.50
2022-09-14T23:04:12.868Z,9.60
2022-09-14T23:06:42.866Z,9.80
2022-09-14T23:09:13.381Z,9.00
2022-09-14T23:11:43.982Z,9.60
2022-09-14T23:14:12.867Z,8.70
2022-09-14T23:16:44.383Z,10.00
2022-09-14T23:19:16.325Z,10.40
2022-09-14T23:21:46.204Z,9.80
2022-09-14T23:24:15.303Z,13.20
2022-09-14T23:26:44.008Z,10.10
2022-09-14T23:29:15.993Z,15.00
2022-09-14T23:31:44.859Z,10.10
2022-09-14T23:34:14.043Z,10.30
2022-09-14T23:36:42.507Z,8.40
2022-09-14T23:39:11.765Z,9.90
2022-09-14T23:41:40.689Z,13.80
2022-09-14T23:44:11.322Z,11.60
2022-09-14T23:46:40.443Z,10.00
2022-09-14T23:49:10.906Z,9.80
2022-09-14T23:51:40.365Z,14.50
2022-09-14T23:54:10.275Z,8.50
2022-09-14T23:56:38.566Z,12.10
2022-09-14T23:59:07.362Z,7.80
